createdAt,value
2018-07-22T00:00:18.886Z,63.10
2018-07-22T00:02:47.295Z,63.20
2018-07-22T00:05:15.689Z,63.30
2018-07-22T00:07:44.280Z,63.50
2018-07-22T00:10:23.029Z,63.80
2018-07-22T00:12:52.125Z,63.80
2018-07-22T00:15:21.515Z,64.30
2018-07-22T00:17:49.915Z,64.90
2018-07-22T00:20:18.799Z,65.70
2018-07-22T00:22:47.615Z,66.00
2018-07-22T00:25:17.615Z,65.70
2018-07-22T00:27:47.119Z,65.60
2018-07-22T00:30:15.552Z,65.50
2018-07-22T00:32:43.963Z,65.80
2018-07-22T00:35:13.601Z,66.00
2018-07-22T00:37:42.498Z,65.60
2018-07-22T00:40:12.590Z,65.10
2018-07-22T00:42:40.978Z,65.40
2018-07-22T00:45:14.032Z,66.20
2018-07-22T00:47:43.564Z,67.00
2018-07-22T00:50:11.955Z,67.20
2018-07-22T00:52:41.151Z,67.50
2018-07-22T00:55:09.554Z,67.80
2018-07-22T00:57:37.986Z,68.30
2018-07-22T01:00:06.839Z,68.90
2018-07-22T01:02:35.602Z,69.70
2018-07-22T01:05:04.064Z,69.70
2018-07-22T01:07:32.456Z,69.10
2018-07-22T01:10:01.407Z,68.40
2018-07-22T01:12:30.398Z,67.70
2018-07-22T01:14:58.882Z,67.90
2018-07-22T01:17:27.274Z,68.20
2018-07-22T01:19:55.676Z,68.80
2018-07-22T01:22:24.464Z,69.90
2018-07-22T01:24:52.882Z,71.20
2018-07-22T01:27:21.283Z,71.70
2018-07-22T01:29:55.959Z,72.10
2018-07-22T01:32:25.048Z,72.70
2018-07-22T01:34:53.446Z,73.00
2018-07-22T01:37:22.015Z,73.00
2018-07-22T01:39:50.408Z,72.30
2018-07-22T01:42:18.978Z,71.60
2018-07-22T01:44:47.837Z,71.50
2018-07-22T01:47:16.236Z,71.60
2018-07-22T01:49:44.927Z,72.50
2018-07-22T01:52:13.794Z,73.50
2018-07-22T01:54:42.201Z,73.60
2018-07-22T01:57:10.620Z,74.30
2018-07-22T01:59:39.049Z,74.30
2018-07-22T02:02:08.215Z,73.80
2018-07-22T02:04:36.849Z,73.10
2018-07-22T02:07:05.859Z,73.30
2018-07-22T02:09:34.273Z,74.00
2018-07-22T02:12:02.678Z,74.40
2018-07-22T02:14:31.084Z,74.60
2018-07-22T02:16:59.757Z,74.60
2018-07-22T02:19:28.173Z,74.50
2018-07-22T02:21:56.566Z,75.50
2018-07-22T02:24:25.074Z,76.20
2018-07-22T02:26:53.482Z,77.10
2018-07-22T02:29:22.533Z,76.90
2018-07-22T02:31:51.018Z,76.50
2018-07-22T02:34:19.435Z,76.30
2018-07-22T02:36:47.841Z,75.90
2018-07-22T02:39:16.226Z,75.50
2018-07-22T02:41:44.653Z,75.50
2018-07-22T02:44:13.580Z,75.00
2018-07-22T02:46:42.427Z,74.80
2018-07-22T02:49:10.828Z,75.00
2018-07-22T02:51:40.043Z,75.20
2018-07-22T02:54:08.485Z,75.50
2018-07-22T02:56:36.892Z,75.50
2018-07-22T02:59:06.398Z,75.90
2018-07-22T03:01:37.568Z,76.10
2018-07-22T03:04:06.902Z,76.10
2018-07-22T03:06:36.044Z,76.00
2018-07-22T03:09:06.395Z,75.70
2018-07-22T03:11:35.092Z,75.50
2018-07-22T03:14:03.514Z,75.50
2018-07-22T03:16:31.929Z,75.60
2018-07-22T03:19:00.336Z,75.40
2018-07-22T03:21:29.291Z,75.20
2018-07-22T03:23:57.699Z,75.00
2018-07-22T03:26:26.797Z,74.20
2018-07-22T03:28:55.738Z,74.50
2018-07-22T03:31:24.865Z,74.80
2018-07-22T03:33:53.725Z,75.00
2018-07-22T03:36:22.129Z,74.90
2018-07-22T03:38:50.829Z,74.80
2018-07-22T03:41:19.317Z,74.70
2018-07-22T03:43:47.707Z,75.00
2018-07-22T03:46:16.117Z,75.20
2018-07-22T03:48:44.521Z,75.10
2018-07-22T03:51:12.970Z,75.50
2018-07-22T03:53:41.390Z,75.60
2018-07-22T03:56:09.791Z,75.80
2018-07-22T03:58:38.198Z,75.60
2018-07-22T04:01:06.957Z,75.20
2018-07-22T04:03:35.406Z,75.30
2018-07-22T04:06:03.950Z,75.90
2018-07-22T04:08:32.342Z,76.10
2018-07-22T04:11:00.756Z,76.90
2018-07-22T04:13:29.172Z,78.10
2018-07-22T04:15:57.872Z,80.50
2018-07-22T04:18:26.268Z,80.70
2018-07-22T04:20:54.674Z,79.90
2018-07-22T04:23:23.117Z,80.20
2018-07-22T04:25:51.515Z,80.70
2018-07-22T04:28:19.938Z,81.10
2018-07-22T04:30:48.338Z,80.70
2018-07-22T04:33:16.749Z,81.20
2018-07-22T04:35:45.187Z,81.30
2018-07-22T04:38:14.031Z,81.00
2018-07-22T04:40:42.680Z,81.20
2018-07-22T04:43:11.534Z,81.40
2018-07-22T04:45:40.205Z,81.40
2018-07-22T04:48:08.609Z,81.40
2018-07-22T04:50:37.008Z,82.10
2018-07-22T04:53:05.442Z,82.50
2018-07-22T04:55:33.835Z,83.60
2018-07-22T04:58:02.277Z,84.70
2018-07-22T05:00:30.710Z,85.10
2018-07-22T05:02:59.367Z,85.30
2018-07-22T05:05:28.403Z,85.40
2018-07-22T05:07:56.828Z,85.70
2018-07-22T05:10:25.243Z,85.90
2018-07-22T05:12:53.663Z,85.60
2018-07-22T05:17:50.181Z,85.80
2018-07-22T05:20:18.630Z,86.50
2018-07-22T05:22:47.057Z,87.40
2018-07-22T05:25:15.875Z,88.00
2018-07-22T05:27:44.695Z,88.30
2018-07-22T05:30:13.314Z,88.90
2018-07-22T05:32:41.810Z,89.20
2018-07-22T05:35:10.236Z,89.50
2018-07-22T05:37:38.624Z,89.50
2018-07-22T05:40:07.037Z,89.40
2018-07-22T05:42:35.448Z,89.50
2018-07-22T05:45:04.721Z,89.40
2018-07-22T05:47:33.135Z,88.90
2018-07-22T05:50:01.540Z,88.30
2018-07-22T05:52:30.620Z,87.90
2018-07-22T05:54:59.025Z,87.50
2018-07-22T05:57:27.434Z,86.70
2018-07-22T05:59:56.446Z,85.70
2018-07-22T06:02:24.856Z,84.60
2018-07-22T06:04:53.264Z,84.30
2018-07-22T06:07:21.668Z,83.80
2018-07-22T06:09:50.075Z,83.40
2018-07-22T06:12:18.488Z,82.20
2018-07-22T06:14:46.918Z,80.50
2018-07-22T06:17:15.350Z,80.20
2018-07-22T06:19:43.760Z,80.10
2018-07-22T06:22:12.165Z,79.70
2018-07-22T06:24:40.817Z,79.60
2018-07-22T06:27:09.451Z,79.80
2018-07-22T06:29:38.418Z,79.60
2018-07-22T06:32:07.113Z,79.50
2018-07-22T06:37:03.781Z,78.20
2018-07-22T06:39:32.193Z,77.30
2018-07-22T06:42:00.674Z,77.20
2018-07-22T06:46:57.772Z,74.40
2018-07-22T06:49:26.937Z,73.00
2018-07-22T06:51:55.483Z,72.10
2018-07-22T06:54:24.363Z,71.50
2018-07-22T06:56:52.980Z,70.70
2018-07-22T06:59:21.380Z,69.90
2018-07-22T07:01:49.789Z,69.40
2018-07-22T07:04:18.201Z,69.20
2018-07-22T07:06:46.669Z,68.10
2018-07-22T07:09:15.148Z,67.20
2018-07-22T07:11:44.150Z,66.70
2018-07-22T07:14:12.562Z,65.40
2018-07-22T07:16:40.964Z,64.70
2018-07-22T07:21:37.706Z,64.00
2018-07-22T07:24:06.562Z,63.20
2018-07-22T07:26:34.987Z,62.90
2018-07-22T07:29:03.543Z,62.60
2018-07-22T07:31:31.958Z,61.70
2018-07-22T07:34:00.585Z,61.00
2018-07-22T07:36:29.496Z,59.40
2018-07-22T07:38:57.963Z,58.80
2018-07-22T07:41:26.404Z,56.80
2018-07-22T07:43:54.822Z,57.00
2018-07-22T07:46:23.256Z,56.80
2018-07-22T07:48:51.697Z,56.50
2018-07-22T07:51:20.147Z,55.20
2018-07-22T07:53:48.571Z,54.50
2018-07-22T07:56:17.362Z,53.30
2018-07-22T07:58:45.795Z,53.30
2018-07-22T08:01:14.369Z,53.60
2018-07-22T08:03:43.422Z,54.00
2018-07-22T08:06:12.047Z,54.70
2018-07-22T08:08:40.481Z,54.80
2018-07-22T08:11:08.972Z,55.40
2018-07-22T08:13:37.391Z,56.10
2018-07-22T08:16:11.019Z,56.40
2018-07-22T08:18:40.003Z,57.00
2018-07-22T08:21:08.443Z,57.30
2018-07-22T08:23:37.489Z,57.70
2018-07-22T08:26:06.366Z,58.00
2018-07-22T08:28:46.119Z,58.30
2018-07-22T08:31:14.533Z,58.80
2018-07-22T08:33:42.933Z,58.70
2018-07-22T08:36:11.351Z,58.90
2018-07-22T08:38:39.757Z,58.60
2018-07-22T08:41:08.203Z,58.90
2018-07-22T08:43:36.966Z,59.00
2018-07-22T08:46:05.838Z,59.10
2018-07-22T08:48:34.323Z,58.70
2018-07-22T08:51:03.208Z,58.90
2018-07-22T08:53:31.993Z,59.00
2018-07-22T08:56:00.405Z,58.70
2018-07-22T08:58:28.986Z,58.60
2018-07-22T09:00:57.408Z,58.30
2018-07-22T09:03:26.298Z,58.20
2018-07-22T09:05:54.996Z,58.30
2018-07-22T09:08:23.712Z,58.00
2018-07-22T09:10:52.143Z,57.90
2018-07-22T09:13:20.549Z,58.10
2018-07-22T09:15:48.975Z,58.00
2018-07-22T09:18:17.403Z,57.50
2018-07-22T09:20:45.825Z,57.50
2018-07-22T09:23:14.223Z,57.60
2018-07-22T09:25:42.627Z,57.70
2018-07-22T09:28:11.016Z,57.70
2018-07-22T09:30:39.411Z,57.70
2018-07-22T09:33:07.831Z,57.50
2018-07-22T09:35:36.555Z,57.10
2018-07-22T09:38:05.492Z,56.50
2018-07-22T09:40:34.097Z,56.60
2018-07-22T09:43:02.505Z,56.40
2018-07-22T09:45:31.061Z,56.70
2018-07-22T09:47:59.518Z,56.40
2018-07-22T09:50:27.915Z,55.80
2018-07-22T09:52:56.351Z,55.40
2018-07-22T09:55:24.757Z,55.80
2018-07-22T09:57:53.496Z,55.40
2018-07-22T10:00:27.327Z,55.40
2018-07-22T10:02:55.950Z,55.60
2018-07-22T10:05:27.291Z,55.60
2018-07-22T10:07:55.824Z,55.50
2018-07-22T10:10:24.887Z,55.20
2018-07-22T10:13:04.352Z,55.40
2018-07-22T10:15:33.748Z,55.30
2018-07-22T10:18:02.890Z,55.10
2018-07-22T10:20:31.611Z,55.00
2018-07-22T10:23:00.048Z,54.90
2018-07-22T10:25:29.525Z,54.70
2018-07-22T10:30:26.536Z,54.30
2018-07-22T10:32:55.269Z,53.80
2018-07-22T10:35:23.685Z,53.80
2018-07-22T10:37:52.087Z,53.00
2018-07-22T10:40:20.513Z,53.40
2018-07-22T10:42:48.942Z,53.80
2018-07-22T10:45:17.341Z,54.20
2018-07-22T10:47:45.772Z,54.40
2018-07-22T10:50:14.183Z,54.40
2018-07-22T10:52:45.178Z,53.60
2018-07-22T10:55:13.590Z,53.60
2018-07-22T10:57:42.036Z,52.70
2018-07-22T11:00:14.178Z,52.60
2018-07-22T11:02:42.721Z,52.60
2018-07-22T11:05:12.399Z,51.80
2018-07-22T11:07:40.793Z,51.20
2018-07-22T11:10:09.192Z,51.30
2018-07-22T11:12:37.662Z,51.40
2018-07-22T11:15:07.697Z,51.00
2018-07-22T11:17:36.260Z,50.70
2018-07-22T11:20:05.405Z,50.90
2018-07-22T11:22:33.840Z,51.00
2018-07-22T11:25:02.245Z,50.00
2018-07-22T11:27:30.906Z,49.60
2018-07-22T11:29:59.312Z,49.90
2018-07-22T11:32:27.733Z,49.80
2018-07-22T11:34:56.161Z,50.40
2018-07-22T11:37:24.914Z,50.70
2018-07-22T11:39:53.318Z,49.80
2018-07-22T11:42:21.715Z,50.00
2018-07-22T11:44:50.290Z,49.80
2018-07-22T11:47:18.718Z,49.90
2018-07-22T11:49:47.482Z,50.00
2018-07-22T11:52:15.880Z,48.90
2018-07-22T11:54:44.338Z,48.20
2018-07-22T11:57:12.731Z,48.20
2018-07-22T11:59:41.126Z,49.10
2018-07-22T12:02:09.543Z,49.60
2018-07-22T12:04:37.991Z,50.00
2018-07-22T12:07:06.393Z,50.00
2018-07-22T12:09:35.219Z,49.80
2018-07-22T12:12:04.213Z,49.80
2018-07-22T12:14:32.587Z,49.30
2018-07-22T12:17:01.031Z,49.10
2018-07-22T12:19:29.531Z,49.00
2018-07-22T12:21:58.005Z,49.50
2018-07-22T12:24:26.403Z,50.40
2018-07-22T12:29:23.237Z,51.00
2018-07-22T12:31:51.661Z,51.30
2018-07-22T12:34:20.138Z,51.60
2018-07-22T12:36:48.631Z,51.80
2018-07-22T12:39:17.037Z,52.00
2018-07-22T12:41:45.597Z,52.10
2018-07-22T12:44:13.992Z,52.20
2018-07-22T12:46:42.911Z,52.10
2018-07-22T12:49:11.476Z,51.00
2018-07-22T12:51:40.301Z,50.00
2018-07-22T12:54:08.720Z,49.40
2018-07-22T12:56:37.111Z,47.70
2018-07-22T12:59:05.591Z,47.30
2018-07-22T13:04:02.387Z,47.60
2018-07-22T13:06:30.794Z,46.90
2018-07-22T13:08:59.616Z,46.50
2018-07-22T13:11:28.008Z,47.00
2018-07-22T13:13:56.412Z,47.30
2018-07-22T13:16:25.107Z,47.40
2018-07-22T13:18:53.551Z,47.40
2018-07-22T13:21:21.943Z,46.90
2018-07-22T13:23:50.737Z,45.30
2018-07-22T13:26:19.165Z,43.70
2018-07-22T13:28:47.551Z,43.70
2018-07-22T13:31:16.153Z,43.30
2018-07-22T13:33:44.552Z,44.20
2018-07-22T13:36:13.052Z,44.20
2018-07-22T13:38:41.445Z,44.60
2018-07-22T13:41:09.844Z,45.50
2018-07-22T13:46:06.887Z,45.90
2018-07-22T13:48:35.487Z,46.00
2018-07-22T13:51:03.893Z,46.00
2018-07-22T13:53:32.497Z,44.80
2018-07-22T13:56:00.893Z,44.50
2018-07-22T13:58:29.651Z,43.90
2018-07-22T14:00:58.059Z,43.40
2018-07-22T14:03:26.705Z,43.00
2018-07-22T14:05:55.527Z,42.60
2018-07-22T14:08:23.938Z,41.80
2018-07-22T14:10:53.002Z,41.60
2018-07-22T14:13:21.391Z,41.50
2018-07-22T14:15:49.786Z,41.50
2018-07-22T14:18:18.952Z,41.00
2018-07-22T14:20:47.390Z,40.40
2018-07-22T14:23:15.921Z,40.00
2018-07-22T14:25:44.357Z,39.50
2018-07-22T14:28:12.777Z,39.40
2018-07-22T14:30:41.995Z,39.60
2018-07-22T14:33:11.081Z,39.60
2018-07-22T14:35:39.536Z,39.30
2018-07-22T14:38:07.947Z,38.70
2018-07-22T14:40:36.459Z,38.60
2018-07-22T14:43:05.532Z,38.40
2018-07-22T14:45:33.923Z,38.30
2018-07-22T14:48:02.387Z,38.60
2018-07-22T14:50:30.951Z,38.50
2018-07-22T14:52:59.442Z,39.60
2018-07-22T14:55:28.058Z,39.70
2018-07-22T14:57:56.917Z,39.30
2018-07-22T15:00:25.455Z,39.30
2018-07-22T15:02:53.743Z,39.50
2018-07-22T15:05:22.146Z,39.30
2018-07-22T15:07:50.587Z,39.70
2018-07-22T15:10:18.985Z,40.00
2018-07-22T15:12:47.802Z,40.40
2018-07-22T15:15:16.382Z,40.70
2018-07-22T15:17:45.342Z,41.00
2018-07-22T15:20:13.869Z,41.30
2018-07-22T15:22:42.744Z,40.90
2018-07-22T15:25:11.253Z,41.10
2018-07-22T15:27:39.806Z,41.50
2018-07-22T15:30:08.346Z,41.90
2018-07-22T15:32:36.767Z,41.40
2018-07-22T15:35:05.285Z,41.50
2018-07-22T15:37:33.934Z,41.80
2018-07-22T15:40:02.346Z,41.80
2018-07-22T15:42:31.128Z,41.30
2018-07-22T15:44:59.527Z,41.20
2018-07-22T15:47:27.931Z,41.10
2018-07-22T15:49:56.687Z,41.60
2018-07-22T15:52:25.082Z,41.80
2018-07-22T15:54:53.544Z,41.60
2018-07-22T15:57:21.929Z,41.70
2018-07-22T15:59:50.376Z,41.80
2018-07-22T16:02:19.489Z,42.00
2018-07-22T16:04:47.881Z,41.80
2018-07-22T16:07:16.282Z,41.60
2018-07-22T16:09:44.676Z,41.60
2018-07-22T16:12:14.108Z,41.80
2018-07-22T16:14:42.575Z,42.20
2018-07-22T16:17:11.126Z,42.60
2018-07-22T16:19:39.544Z,42.20
2018-07-22T16:22:07.946Z,42.20
2018-07-22T16:24:36.360Z,42.30
2018-07-22T16:27:05.347Z,42.30
2018-07-22T16:29:33.765Z,42.40
2018-07-22T16:32:02.509Z,42.60
2018-07-22T16:34:30.948Z,42.80
2018-07-22T16:36:59.351Z,42.60
2018-07-22T16:39:27.754Z,42.60
2018-07-22T16:41:56.871Z,42.20
2018-07-22T16:44:25.692Z,42.00
2018-07-22T16:46:54.168Z,42.30
2018-07-22T16:49:22.706Z,42.40
2018-07-22T16:51:51.194Z,42.70
2018-07-22T16:54:19.822Z,43.00
2018-07-22T16:56:48.272Z,43.40
2018-07-22T16:59:16.693Z,43.60
2018-07-22T17:01:45.942Z,43.50
2018-07-22T17:04:15.050Z,42.90
2018-07-22T17:06:43.489Z,43.20
2018-07-22T17:09:12.756Z,43.50
2018-07-22T17:11:41.805Z,43.40
2018-07-22T17:14:10.294Z,43.30
2018-07-22T17:16:38.773Z,43.20
2018-07-22T17:19:07.221Z,43.40
2018-07-22T17:21:36.062Z,43.80
2018-07-22T17:24:04.568Z,44.50
2018-07-22T17:26:32.975Z,45.00
2018-07-22T17:29:02.261Z,45.40
2018-07-22T17:31:30.690Z,45.70
2018-07-22T17:33:59.113Z,46.40
2018-07-22T17:36:27.547Z,46.60
2018-07-22T17:38:55.956Z,46.90
2018-07-22T17:41:24.464Z,47.20
2018-07-22T17:43:52.966Z,47.50
2018-07-22T17:46:21.389Z,48.00
2018-07-22T17:48:49.827Z,48.30
2018-07-22T17:51:18.487Z,48.60
2018-07-22T17:53:46.871Z,48.40
2018-07-22T17:56:15.568Z,48.50
2018-07-22T17:58:44.024Z,48.70
2018-07-22T18:01:12.478Z,48.90
2018-07-22T18:03:40.900Z,49.10
2018-07-22T18:06:09.483Z,49.30
2018-07-22T18:08:37.888Z,49.60
2018-07-22T18:11:06.769Z,50.00
2018-07-22T18:13:35.238Z,50.20
2018-07-22T18:16:03.730Z,50.40
2018-07-22T18:18:32.258Z,50.60
2018-07-22T18:21:00.654Z,50.70
2018-07-22T18:23:29.064Z,50.80
2018-07-22T18:25:57.463Z,50.80
2018-07-22T18:28:25.867Z,50.80
2018-07-22T18:30:54.280Z,50.90
2018-07-22T18:33:22.689Z,51.00
2018-07-22T18:35:51.709Z,50.90
2018-07-22T18:38:20.659Z,50.90
2018-07-22T18:40:49.082Z,50.90
2018-07-22T18:43:17.481Z,51.00
2018-07-22T18:45:46.130Z,50.80
2018-07-22T18:48:14.565Z,50.80
2018-07-22T18:50:43.312Z,50.70
2018-07-22T18:53:11.952Z,50.90
2018-07-22T18:55:40.732Z,51.30
2018-07-22T19:00:37.561Z,51.70
2018-07-22T19:03:06.441Z,51.80
2018-07-22T19:05:34.878Z,52.00
2018-07-22T19:08:03.249Z,52.20
2018-07-22T19:10:31.644Z,52.40
2018-07-22T19:13:00.064Z,52.60
2018-07-22T19:15:28.881Z,52.70
2018-07-22T19:17:57.285Z,52.90
2018-07-22T19:20:25.695Z,53.10
2018-07-22T19:22:54.115Z,53.20
2018-07-22T19:25:22.560Z,53.30
2018-07-22T19:27:50.957Z,53.30
2018-07-22T19:30:19.414Z,53.50
2018-07-22T19:32:47.806Z,53.40
2018-07-22T19:35:16.203Z,53.60
2018-07-22T19:37:44.602Z,53.60
2018-07-22T19:40:13.080Z,53.60
2018-07-22T19:42:41.447Z,53.60
2018-07-22T19:45:09.866Z,53.50
2018-07-22T19:47:38.502Z,53.30
2018-07-22T19:50:06.898Z,53.30
2018-07-22T19:55:03.404Z,53.50
2018-07-22T19:57:31.828Z,53.80
2018-07-22T20:00:01.072Z,54.10
2018-07-22T20:02:29.465Z,54.50
2018-07-22T20:04:57.864Z,54.80
2018-07-22T20:07:26.282Z,55.10
2018-07-22T20:09:54.664Z,55.10
2018-07-22T20:14:51.270Z,55.50
2018-07-22T20:17:19.907Z,55.80
2018-07-22T20:19:48.326Z,56.20
2018-07-22T20:22:16.728Z,56.50
2018-07-22T20:24:45.137Z,56.90
2018-07-22T20:27:13.843Z,57.10
2018-07-22T20:29:42.240Z,57.20
2018-07-22T20:32:10.635Z,57.40
2018-07-22T20:34:39.023Z,57.40
2018-07-22T20:37:07.431Z,57.40
2018-07-22T20:39:36.187Z,57.80
2018-07-22T20:42:04.625Z,58.00
2018-07-22T20:44:33.091Z,58.10
2018-07-22T20:47:02.207Z,58.30
2018-07-22T20:49:30.698Z,58.40
2018-07-22T20:51:59.171Z,58.30
2018-07-22T20:54:27.667Z,58.40
2018-07-22T20:56:56.143Z,58.70
2018-07-22T20:59:24.526Z,58.90
2018-07-22T21:01:52.930Z,58.90
2018-07-22T21:04:21.586Z,59.00
2018-07-22T21:06:49.994Z,59.10
2018-07-22T21:09:18.398Z,59.40
2018-07-22T21:13:00.861Z,59.60
2018-07-22T21:15:29.588Z,59.70
2018-07-22T21:17:58.000Z,59.90
2018-07-22T21:22:54.708Z,59.90
2018-07-22T21:25:23.108Z,60.20
2018-07-22T21:27:51.525Z,60.60
2018-07-22T21:30:19.926Z,60.50
2018-07-22T21:32:57.006Z,60.10
2018-07-22T21:35:25.676Z,60.10
2018-07-22T21:37:54.362Z,60.40
2018-07-22T21:40:22.853Z,60.30
2018-07-22T21:42:51.194Z,60.60
2018-07-22T21:45:19.626Z,60.60
2018-07-22T21:47:48.289Z,60.60
2018-07-22T21:50:16.687Z,60.70
2018-07-22T21:52:45.095Z,61.10
2018-07-22T21:55:13.565Z,61.40
2018-07-22T21:57:41.973Z,61.60
2018-07-22T22:00:31.751Z,61.90
2018-07-22T22:03:02.622Z,62.10
2018-07-22T22:05:31.028Z,62.20
2018-07-22T22:07:59.421Z,62.40
2018-07-22T22:10:28.570Z,61.50
2018-07-22T22:12:57.559Z,60.50
2018-07-22T22:15:28.612Z,59.90
2018-07-22T22:20:48.616Z,59.20
2018-07-22T22:23:31.917Z,58.50
2018-07-22T22:26:03.118Z,57.80
2018-07-22T22:28:31.525Z,57.10
2018-07-22T22:31:00.311Z,56.80
2018-07-22T22:33:28.712Z,56.20
2018-07-22T22:35:57.125Z,56.20
2018-07-22T22:40:53.741Z,56.00
2018-07-22T22:43:22.133Z,55.80
2018-07-22T22:45:50.894Z,55.80
2018-07-22T22:48:19.282Z,55.70
2018-07-22T22:50:47.680Z,56.20
2018-07-22T22:53:16.060Z,56.60
2018-07-22T22:55:44.464Z,56.90
2018-07-22T22:58:23.976Z,56.90
2018-07-22T23:00:52.404Z,56.90
2018-07-22T23:03:20.796Z,56.80
2018-07-22T23:05:49.176Z,56.70
2018-07-22T23:08:18.430Z,56.90
2018-07-22T23:10:46.814Z,57.10
2018-07-22T23:13:15.910Z,57.20
2018-07-22T23:15:44.302Z,57.60
2018-07-22T23:18:12.686Z,57.80
2018-07-22T23:20:41.090Z,58.00
2018-07-22T23:23:09.504Z,58.30
2018-07-22T23:25:37.956Z,58.30
2018-07-22T23:28:06.389Z,58.20
2018-07-22T23:30:35.166Z,58.20
2018-07-22T23:33:03.577Z,58.20
2018-07-22T23:35:31.992Z,58.20
2018-07-22T23:38:00.407Z,58.10
2018-07-22T23:40:28.817Z,58.00
2018-07-22T23:42:57.257Z,57.90
2018-07-22T23:45:26.031Z,57.80
2018-07-22T23:47:54.533Z,57.80
2018-07-22T23:50:22.941Z,57.60
2018-07-22T23:52:51.491Z,57.60
2018-07-22T23:55:19.902Z,57.40
2018-07-22T23:57:48.315Z,57.40
